Time;durP1;ratioP1;P1;durP2;ratioP2;P2;SDS_P1;SDS_P2;PMS_P1;PMS_P2;Temp;Humidity;BMP_temperature;BMP_pressure;BME280_temperature;BME280_humidity;BME280_pressure;Samples;Min_cycle;Max_cycle;Signal;HPM_P1;HPM_P2
2023/03/26 00:01:48;;;;;;;11.82;3.97;;;9.90;92.10;;;;;;5059608;28;20472;-72
2023/03/26 00:04:18;;;;;;;11.60;3.88;;;10.00;92.00;;;;;;5082207;28;20766;-72
2023/03/26 00:06:47;;;;;;;12.35;3.92;;;10.00;92.30;;;;;;5050027;28;20516;-72
2023/03/26 00:09:17;;;;;;;10.18;3.42;;;10.00;92.10;;;;;;5063706;28;20415;-72
2023/03/26 00:11:45;;;;;;;11.95;3.55;;;10.00;92.00;;;;;;5059538;28;20434;-72
2023/03/26 00:14:16;;;;;;;15.70;4.93;;;10.00;92.00;;;;;;5061860;28;20472;-72
2023/03/26 00:16:44;;;;;;;11.90;3.55;;;10.00;92.30;;;;;;5060784;28;20910;-72
2023/03/26 00:19:11;;;;;;;10.57;4.20;;;10.00;92.50;;;;;;5084464;28;20769;-72
2023/03/26 00:21:38;;;;;;;11.20;4.30;;;10.00;92.60;;;;;;5069047;28;20417;-72
2023/03/26 00:24:08;;;;;;;13.38;4.05;;;9.90;92.60;;;;;;5049016;28;20417;-71
2023/03/26 00:26:37;;;;;;;10.00;4.15;;;10.00;92.50;;;;;;5049831;28;20417;-71
2023/03/26 00:29:05;;;;;;;11.27;4.03;;;10.00;92.50;;;;;;5063507;28;20425;-71
2023/03/26 00:31:32;;;;;;;11.20;3.60;;;10.00;92.10;;;;;;5063654;28;20838;-70
2023/03/26 00:34:02;;;;;;;10.45;3.30;;;10.00;92.20;;;;;;5078001;28;20413;-72
2023/03/26 00:36:29;;;;;;;11.77;3.80;;;10.00;92.70;;;;;;5050172;28;20483;-72
2023/03/26 00:38:55;;;;;;;11.70;3.40;;;9.90;92.20;;;;;;5063201;28;20480;-71
2023/03/26 00:41:25;;;;;;;9.35;3.05;;;9.90;92.40;;;;;;5061865;28;20418;-71
2023/03/26 00:43:55;;;;;;;8.48;3.10;;;9.90;92.50;;;;;;5057314;28;20427;-72
2023/03/26 00:46:22;;;;;;;11.10;3.60;;;9.80;92.60;;;;;;5075343;28;20951;-71
2023/03/26 00:48:50;;;;;;;9.55;3.20;;;9.80;92.20;;;;;;5075120;28;20423;-71
2023/03/26 00:51:22;;;;;;;10.43;3.40;;;9.80;92.50;;;;;;5067372;28;20431;-71
2023/03/26 00:53:50;;;;;;;8.82;3.17;;;9.80;92.50;;;;;;5058060;28;20423;-72
2023/03/26 00:56:17;;;;;;;9.95;3.10;;;9.80;92.60;;;;;;5055514;28;20977;-72
2023/03/26 00:58:44;;;;;;;10.18;3.28;;;9.70;92.50;;;;;;5057810;28;20420;-72
2023/03/26 01:01:16;;;;;;;12.60;3.47;;;9.70;92.70;;;;;;5072177;28;20830;-72
2023/03/26 01:03:44;;;;;;;9.93;3.28;;;9.70;92.90;;;;;;5056639;28;20812;-71
2023/03/26 01:06:14;;;;;;;8.82;3.00;;;9.60;93.00;;;;;;5057056;28;20493;-71
2023/03/26 01:08:43;;;;;;;10.63;3.80;;;9.60;93.20;;;;;;5053573;28;20508;-71
2023/03/26 01:11:14;;;;;;;11.93;3.65;;;9.50;93.00;;;;;;5049377;28;20512;-71
2023/03/26 01:13:48;;;;;;;13.20;3.72;;;9.50;93.20;;;;;;5063013;28;20422;-72
2023/03/26 01:16:22;;;;;;;10.57;3.25;;;9.40;93.50;;;;;;5059381;28;20437;-71
2023/03/26 01:18:51;;;;;;;14.00;3.37;;;9.30;93.90;;;;;;5063753;28;20445;-72
2023/03/26 01:21:27;;;;;;;12.10;3.85;;;9.20;94.20;;;;;;5061701;28;20416;-71
2023/03/26 01:24:01;;;;;;;14.73;3.90;;;9.10;94.80;;;;;;5048120;28;20417;-71
2023/03/26 01:26:52;;;;;;;11.82;3.85;;;9.00;95.20;;;;;;5055753;28;20417;-71
2023/03/26 01:29:22;;;;;;;9.00;3.60;;;9.00;95.40;;;;;;5033726;28;20429;-72
2023/03/26 01:32:00;;;;;;;10.82;3.67;;;8.90;95.90;;;;;;5065529;28;20430;-71
2023/03/26 01:34:36;;;;;;;10.05;3.20;;;8.90;95.90;;;;;;5075821;28;20414;-71
2023/03/26 01:37:13;;;;;;;11.52;3.65;;;8.80;96.10;;;;;;5072042;28;20419;-72
2023/03/26 01:39:51;;;;;;;13.30;4.10;;;8.80;96.30;;;;;;5054554;28;20478;-71
2023/03/26 01:42:24;;;;;;;11.95;3.78;;;8.70;96.70;;;;;;5064841;28;20412;-71
2023/03/26 01:44:58;;;;;;;10.13;3.40;;;8.70;96.80;;;;;;5058670;28;20432;-71
2023/03/26 01:47:25;;;;;;;10.05;3.90;;;8.70;97.00;;;;;;5068169;28;20913;-71
2023/03/26 01:49:52;;;;;;;9.75;3.60;;;8.70;97.10;;;;;;5067589;28;20422;-72
2023/03/26 01:52:24;;;;;;;11.80;3.97;;;8.70;97.20;;;;;;5054518;28;20437;-72
2023/03/26 01:54:53;;;;;;;11.70;3.40;;;8.70;97.10;;;;;;5060340;28;20421;-72
2023/03/26 01:57:29;;;;;;;11.87;3.50;;;8.70;97.10;;;;;;5046105;28;20513;-71
2023/03/26 02:00:11;;;;;;;8.85;3.40;;;8.70;97.30;;;;;;5072642;28;20976;-72
2023/03/26 02:02:48;;;;;;;12.15;3.65;;;8.70;97.40;;;;;;5055101;28;20835;-72
2023/03/26 02:05:20;;;;;;;9.53;3.40;;;8.70;97.30;;;;;;5056218;28;20413;-72
2023/03/26 02:07:51;;;;;;;12.23;4.20;;;8.70;97.20;;;;;;5060366;28;20476;-71
2023/03/26 02:10:25;;;;;;;9.98;3.70;;;8.70;97.20;;;;;;5072479;28;20413;-71
2023/03/26 02:12:52;;;;;;;10.05;3.80;;;8.80;97.10;;;;;;5051690;28;20458;-71
2023/03/26 02:15:19;;;;;;;8.73;3.70;;;8.80;96.90;;;;;;5062570;28;20425;-71
2023/03/26 02:17:48;;;;;;;11.07;3.60;;;8.90;96.70;;;;;;5052532;28;20957;-72
2023/03/26 02:20:17;;;;;;;10.10;3.42;;;8.90;96.70;;;;;;5052701;28;20417;-71
2023/03/26 02:22:46;;;;;;;7.20;3.13;;;8.90;96.70;;;;;;5044648;28;20418;-72
2023/03/26 02:25:14;;;;;;;11.48;3.60;;;8.90;96.70;;;;;;5046123;28;20815;-71
2023/03/26 02:27:43;;;;;;;10.30;3.50;;;8.90;96.20;;;;;;5047220;28;20435;-72
2023/03/26 02:30:15;;;;;;;10.88;3.35;;;9.00;96.00;;;;;;5081742;28;21429;-71
2023/03/26 02:32:42;;;;;;;9.48;3.10;;;9.00;96.00;;;;;;5047778;28;20912;-71
2023/03/26 02:35:10;;;;;;;12.30;4.30;;;9.00;96.00;;;;;;5051071;28;20502;-72
2023/03/26 02:37:37;;;;;;;8.88;3.42;;;9.00;95.90;;;;;;5044721;28;20422;-71
2023/03/26 02:40:09;;;;;;;9.13;3.70;;;9.00;96.20;;;;;;5049688;28;20426;-70
2023/03/26 02:42:36;;;;;;;8.30;3.78;;;9.00;96.00;;;;;;5052995;28;20432;-70
2023/03/26 02:45:06;;;;;;;9.80;3.38;;;9.00;96.20;;;;;;5058137;28;20431;-72
2023/03/26 02:47:33;;;;;;;8.30;3.38;;;9.00;96.30;;;;;;5045877;28;20421;-71
2023/03/26 02:50:00;;;;;;;6.20;3.03;;;9.00;96.20;;;;;;5047258;28;20452;-71
2023/03/26 02:52:27;;;;;;;10.88;3.22;;;9.00;95.90;;;;;;5043993;28;20433;-71
2023/03/26 02:54:54;;;;;;;11.30;3.75;;;9.00;96.10;;;;;;5050599;28;20429;-71
2023/03/26 02:57:21;;;;;;;11.10;3.67;;;9.10;96.00;;;;;;5065173;28;20436;-71
2023/03/26 02:59:49;;;;;;;9.38;3.70;;;9.10;95.90;;;;;;5072764;28;20421;-70
2023/03/26 03:02:18;;;;;;;9.70;3.00;;;9.10;96.00;;;;;;5062301;28;20407;-71
2023/03/26 03:04:45;;;;;;;12.68;3.60;;;9.10;95.80;;;;;;5057882;28;20421;-71
2023/03/26 03:07:13;;;;;;;9.18;3.90;;;9.10;96.00;;;;;;5059377;28;20412;-72
2023/03/26 03:09:40;;;;;;;10.20;3.73;;;9.10;95.90;;;;;;5047574;28;20478;-72
2023/03/26 03:12:06;;;;;;;10.70;3.30;;;9.10;96.00;;;;;;5052240;28;20522;-72
2023/03/26 03:14:33;;;;;;;6.70;2.90;;;9.10;96.40;;;;;;5076502;28;20414;-71
2023/03/26 03:17:00;;;;;;;11.00;3.80;;;9.10;96.00;;;;;;5059909;28;20424;-70
2023/03/26 03:19:28;;;;;;;10.32;3.05;;;9.10;96.30;;;;;;5060360;28;20417;-71
2023/03/26 03:21:55;;;;;;;9.55;3.10;;;9.10;96.20;;;;;;5056140;28;20420;-71
2023/03/26 03:24:22;;;;;;;8.85;3.28;;;9.10;96.40;;;;;;5053469;28;20452;-71
2023/03/26 03:26:49;;;;;;;8.88;3.30;;;9.10;96.20;;;;;;5052823;28;20635;-71
2023/03/26 03:29:16;;;;;;;8.75;3.40;;;9.10;96.00;;;;;;5073428;28;20417;-71
2023/03/26 03:31:43;;;;;;;11.52;3.03;;;9.10;96.30;;;;;;5047205;28;20429;-71
2023/03/26 03:34:09;;;;;;;9.90;3.05;;;9.10;96.10;;;;;;5076120;28;20417;-72
2023/03/26 03:36:38;;;;;;;9.27;3.20;;;9.10;96.20;;;;;;5060256;28;20793;-71
2023/03/26 03:39:05;;;;;;;8.07;3.30;;;9.10;96.50;;;;;;5047609;28;20853;-71
2023/03/26 03:41:31;;;;;;;9.23;3.10;;;9.10;97.00;;;;;;5046958;28;20429;-72
2023/03/26 03:44:00;;;;;;;11.25;3.30;;;9.00;97.40;;;;;;5063108;28;20955;-71
2023/03/26 03:46:27;;;;;;;10.87;3.90;;;9.00;97.50;;;;;;5061212;28;20432;-71
2023/03/26 03:48:53;;;;;;;9.10;3.20;;;9.00;98.00;;;;;;5049448;28;20757;-71
2023/03/26 03:51:20;;;;;;;9.48;2.97;;;9.00;98.70;;;;;;5050332;28;20433;-71
2023/03/26 03:53:49;;;;;;;9.30;3.35;;;8.90;98.80;;;;;;5074434;28;20424;-70
2023/03/26 03:56:17;;;;;;;7.97;3.10;;;8.80;99.10;;;;;;5066983;28;20417;-70
2023/03/26 03:58:46;;;;;;;9.45;3.95;;;8.80;99.90;;;;;;5073009;28;20420;-71
2023/03/26 04:01:14;;;;;;;10.38;3.80;;;8.80;99.90;;;;;;5057541;28;20954;-70
2023/03/26 04:03:40;;;;;;;9.80;3.47;;;8.70;99.90;;;;;;5050556;28;20950;-70
2023/03/26 04:06:09;;;;;;;7.43;3.00;;;8.70;99.90;;;;;;5060209;28;20440;-70
2023/03/26 04:08:36;;;;;;;9.50;3.60;;;8.70;99.90;;;;;;5070259;28;20895;-69
2023/03/26 04:11:05;;;;;;;13.02;4.10;;;8.60;99.90;;;;;;5055024;28;20440;-71
2023/03/26 04:13:31;;;;;;;11.77;3.58;;;8.60;99.90;;;;;;5068748;28;20815;-72
2023/03/26 04:15:59;;;;;;;10.15;3.70;;;8.60;99.90;;;;;;5076899;28;20423;-71
2023/03/26 04:18:26;;;;;;;10.03;3.40;;;8.50;99.90;;;;;;5049549;28;20421;-70
2023/03/26 04:20:54;;;;;;;9.88;3.58;;;8.50;99.90;;;;;;5061890;28;20437;-70
2023/03/26 04:23:22;;;;;;;7.13;3.60;;;8.50;99.90;;;;;;5070019;28;20438;-68
2023/03/26 04:25:52;;;;;;;9.40;3.20;;;8.40;99.90;;;;;;5064427;28;20991;-69
2023/03/26 04:28:29;;;;;;;10.43;3.40;;;8.40;99.90;;;;;;5057145;28;20427;-70
2023/03/26 04:30:59;;;;;;;9.60;3.90;;;8.40;99.90;;;;;;5053908;28;20425;-70
2023/03/26 04:33:27;;;;;;;9.70;3.30;;;8.40;99.90;;;;;;5058882;28;20520;-69
2023/03/26 04:35:55;;;;;;;10.40;3.85;;;8.40;99.90;;;;;;5067304;28;20421;-69
2023/03/26 04:38:22;;;;;;;9.38;3.33;;;8.40;99.90;;;;;;5066632;28;20515;-69
2023/03/26 04:40:49;;;;;;;13.98;3.50;;;8.40;99.90;;;;;;5061975;28;20783;-69
2023/03/26 04:43:17;;;;;;;7.13;3.08;;;8.40;99.90;;;;;;5077148;28;20491;-68
2023/03/26 04:45:46;;;;;;;8.65;3.30;;;8.40;99.90;;;;;;5063678;28;20438;-69
2023/03/26 04:48:13;;;;;;;9.85;3.50;;;8.40;99.90;;;;;;5070844;28;20417;-69
2023/03/26 04:50:41;;;;;;;9.15;3.17;;;8.40;99.90;;;;;;5077248;28;20805;-69
2023/03/26 04:53:12;;;;;;;11.77;3.90;;;8.40;99.90;;;;;;5066091;28;20530;-69
2023/03/26 04:55:45;;;;;;;8.63;3.03;;;8.40;99.90;;;;;;5064361;28;20540;-70
2023/03/26 04:58:12;;;;;;;8.07;2.90;;;8.50;99.90;;;;;;5066386;28;20590;-70
2023/03/26 05:00:39;;;;;;;8.93;3.17;;;8.50;99.90;;;;;;5075961;28;20423;-69
2023/03/26 05:03:10;;;;;;;8.00;2.97;;;8.50;99.90;;;;;;5068228;28;20431;-70
2023/03/26 05:05:38;;;;;;;8.90;3.00;;;8.50;99.90;;;;;;5061434;28;20443;-69
2023/03/26 05:08:05;;;;;;;8.88;3.78;;;8.40;99.90;;;;;;5062824;28;20518;-69
2023/03/26 05:10:32;;;;;;;7.17;3.30;;;8.50;99.90;;;;;;5065155;28;20951;-69
2023/03/26 05:12:59;;;;;;;8.00;3.13;;;8.40;99.90;;;;;;5075317;28;20990;-70
2023/03/26 05:15:25;;;;;;;11.57;3.72;;;8.40;99.90;;;;;;5069107;28;20427;-70
2023/03/26 05:17:54;;;;;;;9.15;3.53;;;8.40;99.90;;;;;;5054388;28;20413;-70
2023/03/26 05:20:25;;;;;;;10.00;3.60;;;8.40;99.90;;;;;;5060892;28;20422;-72
2023/03/26 05:22:52;;;;;;;7.28;3.35;;;8.40;99.90;;;;;;5068988;28;20417;-70
2023/03/26 05:25:19;;;;;;;8.90;3.83;;;8.50;99.90;;;;;;5056195;28;20423;-69
2023/03/26 05:27:46;;;;;;;10.10;3.87;;;8.50;99.90;;;;;;5076155;28;20497;-69
2023/03/26 05:30:15;;;;;;;10.38;4.60;;;8.40;99.90;;;;;;5078601;28;20416;-69
2023/03/26 05:32:42;;;;;;;9.98;3.53;;;8.40;99.90;;;;;;5063726;22;20478;-71
2023/03/26 05:35:09;;;;;;;8.63;3.75;;;8.50;99.90;;;;;;5067526;28;20864;-72
2023/03/26 05:37:37;;;;;;;9.45;3.67;;;8.50;99.90;;;;;;5071702;28;20655;-73
2023/03/26 05:40:10;;;;;;;9.97;3.80;;;8.50;99.90;;;;;;5075590;28;20516;-72
2023/03/26 05:42:37;;;;;;;11.43;4.20;;;8.50;99.90;;;;;;5064854;28;20514;-71
2023/03/26 05:45:04;;;;;;;9.57;3.80;;;8.50;99.90;;;;;;5057037;28;20535;-72
2023/03/26 05:47:31;;;;;;;11.43;4.65;;;8.50;99.90;;;;;;5064798;28;20434;-71
2023/03/26 05:49:58;;;;;;;10.43;4.68;;;8.40;99.90;;;;;;5061955;28;20512;-72
2023/03/26 05:52:25;;;;;;;12.10;4.50;;;8.40;99.90;;;;;;5058364;28;20471;-72
2023/03/26 05:54:53;;;;;;;12.60;4.65;;;8.30;99.90;;;;;;5046794;28;20535;-72
2023/03/26 05:57:21;;;;;;;11.43;4.65;;;8.20;99.90;;;;;;5052770;28;20863;-71
2023/03/26 05:59:48;;;;;;;9.32;4.30;;;8.20;99.90;;;;;;5073712;28;20980;-71
2023/03/26 06:02:14;;;;;;;12.33;4.27;;;8.10;99.90;;;;;;5063987;28;20440;-73
2023/03/26 06:04:41;;;;;;;13.40;4.88;;;8.10;99.90;;;;;;5046415;28;20437;-71
2023/03/26 06:07:08;;;;;;;14.57;4.70;;;8.00;99.90;;;;;;5044882;28;20464;-72
2023/03/26 06:09:37;;;;;;;10.52;4.18;;;8.00;99.90;;;;;;5046798;28;20417;-72
2023/03/26 06:12:05;;;;;;;10.23;4.60;;;7.90;99.90;;;;;;5064485;28;20967;-70
2023/03/26 06:14:32;;;;;;;12.60;4.80;;;7.90;99.90;;;;;;5069303;28;20890;-72
2023/03/26 06:16:59;;;;;;;11.57;4.78;;;7.90;99.90;;;;;;5046151;28;20927;-72
2023/03/26 06:19:26;;;;;;;11.32;4.22;;;7.90;99.90;;;;;;5059788;28;20861;-71
2023/03/26 06:21:53;;;;;;;7.73;4.13;;;7.90;99.90;;;;;;5066093;28;20474;-71
2023/03/26 06:24:20;;;;;;;11.30;4.57;;;7.80;99.90;;;;;;5047594;28;20847;-71
2023/03/26 06:26:47;;;;;;;11.15;5.00;;;7.80;99.90;;;;;;5075727;28;20437;-71
2023/03/26 06:29:15;;;;;;;9.60;4.70;;;7.90;99.90;;;;;;5062890;28;20797;-71
2023/03/26 06:31:42;;;;;;;15.60;5.05;;;7.80;99.90;;;;;;5058245;28;20423;-71
2023/03/26 06:34:09;;;;;;;10.73;4.57;;;7.90;99.90;;;;;;5058785;28;20440;-73
2023/03/26 06:36:35;;;;;;;11.48;5.10;;;7.90;99.90;;;;;;5049119;28;20764;-70
2023/03/26 06:39:02;;;;;;;10.57;3.67;;;7.80;99.90;;;;;;5047440;28;20440;-71
2023/03/26 06:41:29;;;;;;;9.43;4.00;;;7.80;99.90;;;;;;5067477;28;20437;-71
2023/03/26 06:43:56;;;;;;;9.75;3.70;;;7.90;99.90;;;;;;5077628;28;20481;-72
2023/03/26 06:46:24;;;;;;;14.57;4.75;;;7.90;99.90;;;;;;5068142;28;20912;-71
2023/03/26 06:48:52;;;;;;;12.97;4.40;;;7.90;99.90;;;;;;5065184;28;20420;-71
2023/03/26 06:51:18;;;;;;;9.32;3.72;;;7.90;99.90;;;;;;5064654;28;20535;-71
2023/03/26 06:53:45;;;;;;;10.90;3.90;;;7.90;99.90;;;;;;5047963;28;20491;-71
2023/03/26 06:56:12;;;;;;;9.35;4.38;;;7.90;99.90;;;;;;5058962;28;20466;-72
2023/03/26 06:58:39;;;;;;;11.18;4.10;;;7.90;99.90;;;;;;5064125;28;20773;-71
2023/03/26 07:01:06;;;;;;;9.27;4.05;;;7.90;99.90;;;;;;5080870;28;20413;-70
2023/03/26 07:03:34;;;;;;;12.52;4.22;;;7.90;99.90;;;;;;5065219;28;20423;-71
2023/03/26 07:06:01;;;;;;;10.98;4.22;;;8.00;99.90;;;;;;5065227;28;20426;-69
2023/03/26 07:08:29;;;;;;;11.63;4.65;;;8.00;99.90;;;;;;5059929;28;20861;-71
2023/03/26 07:10:56;;;;;;;10.32;4.22;;;8.00;99.90;;;;;;5064026;28;20524;-70
2023/03/26 07:13:23;;;;;;;15.35;5.10;;;8.00;99.90;;;;;;5062987;28;20429;-72
2023/03/26 07:15:49;;;;;;;10.85;4.47;;;8.00;99.90;;;;;;5046143;28;20520;-72
2023/03/26 07:18:16;;;;;;;12.33;4.30;;;8.00;99.90;;;;;;5046026;28;20413;-71
2023/03/26 07:20:46;;;;;;;9.82;4.20;;;8.00;99.90;;;;;;5045059;28;20426;-70
2023/03/26 07:23:14;;;;;;;12.23;4.35;;;8.00;99.90;;;;;;5062738;28;20820;-71
2023/03/26 07:25:41;;;;;;;13.27;4.43;;;8.00;99.90;;;;;;5065527;28;20433;-70
2023/03/26 07:28:17;;;;;;;12.90;5.13;;;8.00;99.90;;;;;;5074882;28;20506;-70
2023/03/26 07:30:56;;;;;;;12.33;4.57;;;7.90;99.90;;;;;;5063955;28;20446;-70
2023/03/26 07:33:29;;;;;;;9.85;4.10;;;7.90;99.90;;;;;;5055244;28;20812;-69
2023/03/26 07:36:06;;;;;;;9.90;4.50;;;7.80;99.90;;;;;;5049246;28;20420;-70
2023/03/26 07:38:43;;;;;;;13.20;4.10;;;7.80;99.90;;;;;;5065348;28;20559;-70
2023/03/26 07:41:15;;;;;;;10.60;4.60;;;7.80;99.90;;;;;;5072160;28;20417;-70
2023/03/26 07:44:02;;;;;;;10.57;4.07;;;7.80;99.90;;;;;;5058335;28;20835;-71
2023/03/26 07:46:32;;;;;;;14.60;4.57;;;7.80;99.90;;;;;;5063657;28;20950;-72
2023/03/26 07:49:00;;;;;;;12.88;4.45;;;7.80;99.90;;;;;;5075487;28;20456;-72
2023/03/26 07:51:29;;;;;;;10.67;4.40;;;7.80;99.90;;;;;;5048679;28;20456;-70
2023/03/26 07:53:58;;;;;;;11.10;4.43;;;7.80;99.90;;;;;;5061374;28;20431;-70
2023/03/26 07:56:32;;;;;;;11.07;4.40;;;7.80;99.90;;;;;;5064348;28;20426;-69
2023/03/26 07:59:20;;;;;;;13.00;5.25;;;7.80;99.90;;;;;;5077358;28;20909;-70
2023/03/26 08:02:11;;;;;;;12.75;4.70;;;7.80;99.90;;;;;;5063098;28;20512;-70
2023/03/26 08:04:57;;;;;;;9.82;4.35;;;7.80;99.90;;;;;;5049301;28;20429;-70
2023/03/26 08:07:38;;;;;;;13.45;4.60;;;7.70;99.90;;;;;;5049373;28;20473;-70
2023/03/26 08:10:11;;;;;;;12.00;5.25;;;7.80;99.90;;;;;;5069381;28;20474;-70
2023/03/26 08:12:48;;;;;;;13.18;5.30;;;7.70;99.90;;;;;;5077431;28;20754;-70
2023/03/26 08:15:24;;;;;;;11.98;5.13;;;7.70;99.90;;;;;;5059727;28;20409;-69
2023/03/26 08:17:56;;;;;;;10.80;5.20;;;7.80;99.90;;;;;;5064202;28;20524;-70
2023/03/26 08:20:35;;;;;;;9.93;4.80;;;7.80;99.90;;;;;;5067261;28;20461;-70
2023/03/26 08:23:08;;;;;;;13.45;5.15;;;7.80;99.90;;;;;;5045829;28;20432;-70
2023/03/26 08:25:39;;;;;;;12.02;5.63;;;7.80;99.90;;;;;;5066479;28;20606;-70
2023/03/26 08:28:19;;;;;;;11.10;6.00;;;7.80;99.90;;;;;;5079917;28;20464;-70
2023/03/26 08:30:46;;;;;;;11.45;5.60;;;7.70;99.90;;;;;;5054493;28;20473;-69
2023/03/26 08:33:16;;;;;;;11.25;5.50;;;7.70;99.90;;;;;;5072718;28;20514;-69
2023/03/26 08:35:44;;;;;;;12.07;5.90;;;7.70;99.90;;;;;;5068204;28;20427;-70
2023/03/26 08:38:14;;;;;;;13.75;6.20;;;7.70;99.90;;;;;;5061366;28;20419;-69
2023/03/26 08:41:29;;;;;;;11.38;5.43;;;7.70;99.90;;;;;;5066342;28;20469;-69
2023/03/26 08:44:20;;;;;;;12.35;5.68;;;7.80;99.90;;;;;;5050117;28;20460;-70
2023/03/26 08:47:20;;;;;;;11.48;5.60;;;7.80;99.90;;;;;;5067507;28;20420;-69
2023/03/26 08:50:11;;;;;;;12.43;5.18;;;7.80;99.90;;;;;;5080279;28;20479;-70
2023/03/26 08:53:00;;;;;;;9.52;4.45;;;7.70;99.90;;;;;;5068284;28;20634;-69
2023/03/26 08:55:43;;;;;;;12.25;5.13;;;7.80;99.90;;;;;;5079326;28;20426;-70
2023/03/26 08:58:53;;;;;;;12.23;4.90;;;7.70;99.90;;;;;;5098457;28;20489;-69
2023/03/26 09:01:56;;;;;;;11.63;4.90;;;7.80;99.90;;;;;;5071235;28;20517;-69
2023/03/26 09:04:46;;;;;;;9.70;4.20;;;7.80;99.90;;;;;;5051446;28;20421;-70
2023/03/26 09:07:34;;;;;;;7.63;3.70;;;7.70;99.90;;;;;;5047217;28;20479;-69
2023/03/26 09:10:30;;;;;;;4.40;2.50;;;7.70;99.90;;;;;;5053645;28;20786;-70
2023/03/26 09:13:23;;;;;;;6.38;2.70;;;7.60;99.90;;;;;;5071237;28;20414;-69
2023/03/26 09:16:22;;;;;;;10.05;3.60;;;7.60;99.90;;;;;;5040440;28;20903;-69
2023/03/26 09:19:23;;;;;;;7.65;2.67;;;7.60;99.90;;;;;;5046759;28;20421;-70
2023/03/26 09:22:19;;;;;;;3.17;1.50;;;7.60;99.90;;;;;;5064018;28;20451;-70
2023/03/26 09:25:17;;;;;;;5.38;2.28;;;7.50;99.90;;;;;;5074280;28;20540;-69
2023/03/26 09:28:14;;;;;;;4.30;2.70;;;7.50;99.90;;;;;;5059933;28;20451;-70
2023/03/26 09:31:05;;;;;;;4.55;2.40;;;7.40;99.90;;;;;;5065210;28;20934;-69
2023/03/26 09:33:56;;;;;;;3.92;2.40;;;7.40;99.90;;;;;;5054570;28;20531;-69
2023/03/26 09:36:46;;;;;;;5.47;2.92;;;7.40;99.90;;;;;;5069105;28;20425;-69
2023/03/26 09:39:21;;;;;;;4.25;3.00;;;7.50;99.90;;;;;;5051236;28;20443;-69
2023/03/26 09:42:02;;;;;;;7.65;3.95;;;7.50;99.90;;;;;;5070789;28;20430;-68
2023/03/26 09:44:57;;;;;;;4.43;3.88;;;7.50;99.90;;;;;;5046135;28;20417;-70
2023/03/26 09:48:04;;;;;;;6.35;2.80;;;7.60;99.90;;;;;;5046999;28;20453;-71
2023/03/26 09:50:55;;;;;;;5.65;2.60;;;7.70;99.90;;;;;;5053424;28;20524;-70
2023/03/26 09:53:44;;;;;;;6.28;2.80;;;7.70;99.90;;;;;;5071813;28;20492;-69
2023/03/26 09:56:31;;;;;;;5.30;2.67;;;7.80;99.90;;;;;;5067487;28;20844;-69
2023/03/26 09:59:17;;;;;;;4.93;2.50;;;7.90;99.90;;;;;;5075485;28;20407;-70
2023/03/26 10:01:53;;;;;;;4.22;2.80;;;7.90;99.90;;;;;;5050333;28;20421;-69
2023/03/26 10:04:42;;;;;;;4.40;2.60;;;7.90;99.90;;;;;;5058919;28;20462;-69
2023/03/26 10:07:29;;;;;;;4.15;2.50;;;8.00;99.90;;;;;;5069349;28;20919;-70
2023/03/26 10:10:02;;;;;;;4.57;2.72;;;8.00;99.90;;;;;;5052909;28;20412;-70
2023/03/26 10:12:35;;;;;;;5.00;2.70;;;8.10;99.90;;;;;;5067398;28;20422;-70
2023/03/26 10:15:13;;;;;;;4.80;2.35;;;8.20;99.90;;;;;;5073700;28;20764;-70
2023/03/26 10:17:52;;;;;;;6.07;2.22;;;8.30;99.90;;;;;;5046650;28;20550;-70
2023/03/26 10:20:38;;;;;;;3.45;2.25;;;8.30;99.90;;;;;;5065631;28;20457;-69
2023/03/26 10:23:20;;;;;;;4.30;2.50;;;8.40;99.90;;;;;;5054504;28;20512;-70
2023/03/26 10:26:11;;;;;;;4.20;2.45;;;8.40;99.90;;;;;;5061214;28;20428;-70
2023/03/26 10:29:10;;;;;;;3.78;2.45;;;8.50;99.90;;;;;;5082617;28;20465;-70
2023/03/26 10:31:43;;;;;;;3.40;2.40;;;8.50;99.90;;;;;;5044656;28;20852;-70
2023/03/26 10:34:26;;;;;;;4.78;2.33;;;8.50;99.90;;;;;;5046416;28;20446;-70
2023/03/26 10:37:00;;;;;;;5.38;2.65;;;8.60;99.90;;;;;;5067352;28;20420;-70
2023/03/26 10:39:44;;;;;;;4.70;2.70;;;8.70;99.90;;;;;;5069938;28;20428;-69
2023/03/26 10:42:27;;;;;;;4.03;2.40;;;8.70;99.90;;;;;;5070611;28;20456;-69
2023/03/26 10:45:06;;;;;;;4.32;2.50;;;8.70;99.90;;;;;;5068155;28;20407;-72
2023/03/26 10:48:01;;;;;;;3.60;2.07;;;8.80;99.90;;;;;;5051258;28;20419;-72
2023/03/26 10:50:38;;;;;;;4.72;2.72;;;8.90;99.90;;;;;;5058528;28;20430;-69
2023/03/26 10:53:12;;;;;;;4.85;2.90;;;9.00;99.90;;;;;;5071943;28;20430;-71
2023/03/26 10:55:40;;;;;;;3.65;2.50;;;9.10;99.90;;;;;;5063566;28;20427;-72
2023/03/26 10:58:17;;;;;;;4.47;2.63;;;9.20;99.90;;;;;;5072915;28;20956;-71
2023/03/26 11:00:50;;;;;;;3.85;2.20;;;9.30;99.90;;;;;;5056562;28;20421;-71
2023/03/26 11:03:37;;;;;;;3.67;2.10;;;9.30;99.90;;;;;;5051700;28;20460;-77
2023/03/26 11:06:13;;;;;;;3.20;2.17;;;9.30;99.90;;;;;;5071293;28;20799;-73
2023/03/26 11:08:48;;;;;;;3.80;2.40;;;9.30;99.90;;;;;;5046971;28;20502;-71
2023/03/26 11:11:22;;;;;;;3.58;2.30;;;9.40;99.90;;;;;;5051635;28;20429;-73
2023/03/26 11:13:58;;;;;;;4.03;2.60;;;9.40;99.90;;;;;;5066933;28;20433;-73
2023/03/26 11:16:31;;;;;;;4.50;2.28;;;9.40;99.90;;;;;;5049946;28;20425;-73
2023/03/26 11:19:02;;;;;;;4.28;2.15;;;9.50;99.90;;;;;;5047705;28;20780;-72
2023/03/26 11:21:35;;;;;;;3.40;2.20;;;9.60;99.90;;;;;;5049062;28;20451;-73
2023/03/26 11:24:35;;;;;;;4.57;2.40;;;9.50;99.90;;;;;;5050739;28;20429;-72
2023/03/26 11:27:07;;;;;;;4.75;2.50;;;9.40;99.90;;;;;;5042677;28;20938;-73
2023/03/26 11:29:46;;;;;;;4.40;2.67;;;9.40;99.90;;;;;;5049373;28;20457;-71
2023/03/26 11:34:45;;;;;;;5.13;2.40;;;9.40;99.90;;;;;;5014597;28;20427;-74
2023/03/26 11:37:18;;;;;;;5.18;2.70;;;9.40;99.90;;;;;;5022883;28;20435;-73
2023/03/26 11:39:51;;;;;;;3.97;2.50;;;9.30;99.90;;;;;;5030297;28;20423;-74
2023/03/26 11:42:21;;;;;;;5.35;3.38;;;9.30;99.90;;;;;;5013445;28;20470;-75
2023/03/26 11:44:53;;;;;;;4.00;2.90;;;9.30;99.90;;;;;;5028078;28;20833;-74
2023/03/26 11:47:24;;;;;;;4.70;2.60;;;9.20;99.90;;;;;;5018158;28;20434;-74
2023/03/26 11:49:54;;;;;;;4.47;3.00;;;9.20;99.90;;;;;;5012047;28;20436;-72
2023/03/26 11:52:22;;;;;;;5.95;3.10;;;9.30;99.90;;;;;;5016908;28;20448;-73
2023/03/26 11:54:50;;;;;;;3.53;2.45;;;9.30;99.90;;;;;;5031906;28;20931;-73
2023/03/26 11:57:20;;;;;;;4.57;2.70;;;9.30;99.90;;;;;;5017281;28;20439;-74
2023/03/26 11:59:53;;;;;;;4.47;2.80;;;9.30;99.90;;;;;;5018626;28;20442;-74
2023/03/26 12:02:27;;;;;;;4.47;2.60;;;9.40;99.90;;;;;;5020901;28;20436;-74
2023/03/26 12:05:11;;;;;;;6.00;2.80;;;9.40;99.90;;;;;;5026839;28;20433;-73
2023/03/26 12:07:46;;;;;;;3.80;2.80;;;9.50;99.90;;;;;;5025742;28;20945;-71
2023/03/26 12:10:23;;;;;;;4.22;2.70;;;9.50;99.90;;;;;;5021581;28;20422;-72
2023/03/26 12:12:53;;;;;;;4.85;2.70;;;9.60;99.90;;;;;;5020069;28;20448;-73
2023/03/26 12:15:21;;;;;;;6.47;2.80;;;9.80;99.90;;;;;;5018504;28;20452;-73
2023/03/26 12:17:52;;;;;;;4.07;2.65;;;10.00;99.90;;;;;;5040625;28;20421;-71
2023/03/26 12:20:34;;;;;;;3.15;2.40;;;10.20;99.90;;;;;;5029952;28;20940;-73
2023/03/26 12:23:03;;;;;;;3.50;2.60;;;10.40;99.90;;;;;;5018225;28;20444;-73
2023/03/26 12:25:33;;;;;;;4.07;2.60;;;10.50;99.90;;;;;;5028342;28;20526;-74
2023/03/26 12:28:03;;;;;;;4.68;2.40;;;10.60;99.90;;;;;;5024502;28;20462;-72
2023/03/26 12:30:32;;;;;;;3.50;2.53;;;10.50;99.90;;;;;;5029086;28;20447;-72
2023/03/26 12:33:02;;;;;;;3.70;2.50;;;10.50;99.90;;;;;;5022068;28;20435;-72
2023/03/26 12:35:32;;;;;;;3.67;2.60;;;10.40;99.90;;;;;;5029140;28;20493;-72
2023/03/26 12:38:18;;;;;;;4.50;2.30;;;10.40;99.90;;;;;;5028975;28;20450;-72
2023/03/26 12:40:46;;;;;;;3.03;2.20;;;10.30;99.90;;;;;;5032902;28;20445;-72
2023/03/26 12:43:25;;;;;;;2.85;2.10;;;10.30;99.90;;;;;;5032484;28;20459;-70
2023/03/26 12:45:57;;;;;;;3.28;1.95;;;10.20;99.90;;;;;;5027843;28;20428;-72
2023/03/26 12:48:25;;;;;;;2.90;2.00;;;10.10;99.90;;;;;;5035764;28;20433;-72
2023/03/26 12:51:05;;;;;;;3.15;2.10;;;10.10;99.90;;;;;;5032249;28;20428;-73
2023/03/26 12:53:47;;;;;;;3.03;2.10;;;10.10;99.90;;;;;;5024807;28;20563;-72
2023/03/26 12:56:21;;;;;;;3.00;2.35;;;10.00;99.90;;;;;;5033619;28;20424;-71
2023/03/26 12:59:20;;;;;;;3.80;2.35;;;10.00;99.90;;;;;;5027554;28;20437;-71
2023/03/26 13:01:55;;;;;;;2.50;2.30;;;10.00;99.90;;;;;;5031284;28;20512;-72
2023/03/26 13:04:46;;;;;;;2.63;2.40;;;9.90;99.90;;;;;;5027156;28;20433;-72
2023/03/26 13:07:24;;;;;;;3.00;2.08;;;9.80;99.90;;;;;;5024084;28;20425;-73
2023/03/26 13:10:15;;;;;;;2.35;1.88;;;9.70;99.90;;;;;;5027854;28;20442;-71
2023/03/26 13:12:50;;;;;;;2.13;1.92;;;9.40;99.90;;;;;;5028800;28;20437;-70
2023/03/26 13:15:25;;;;;;;2.28;2.08;;;9.20;99.90;;;;;;5026955;28;20436;-72
2023/03/26 13:18:07;;;;;;;2.60;2.40;;;9.00;99.90;;;;;;5038711;28;20671;-72
2023/03/26 13:20:48;;;;;;;4.90;2.65;;;8.80;99.90;;;;;;5031117;28;20766;-70
2023/03/26 13:23:26;;;;;;;3.50;3.13;;;8.70;99.90;;;;;;5026560;28;20440;-71
2023/03/26 13:25:59;;;;;;;3.72;3.33;;;8.60;99.90;;;;;;5025369;28;20463;-69